Time;durP1;ratioP1;P1;durP2;ratioP2;P2;SDS_P1;SDS_P2;PMS_P1;PMS_P2;Temp;Humidity;BMP_temperature;BMP_pressure;BME280_temperature;BME280_humidity;BME280_pressure;Samples;Min_cycle;Max_cycle;Signal;HPM_P1;HPM_P2
2022/12/15 00:39:21;;;;;;;25.47;15.70;;;1.20;37.60;;;;;;5006190;28;20559;-71
2022/12/15 00:41:48;;;;;;;23.30;15.00;;;1.20;37.50;;;;;;5005249;28;20483;-70
2022/12/15 00:44:14;;;;;;;26.20;17.27;;;1.20;37.50;;;;;;5011740;28;20974;-70
2022/12/15 00:46:53;;;;;;;27.33;17.60;;;1.20;37.50;;;;;;5005423;28;20480;-70
2022/12/15 01:22:20;;;;;;;23.07;15.43;;;1.10;37.50;;;;;;5004772;28;20506;-71
2022/12/15 01:24:47;;;;;;;26.37;17.47;;;1.10;37.50;;;;;;5001267;28;20670;-70
2022/12/15 01:27:14;;;;;;;29.40;17.60;;;1.10;37.60;;;;;;5005778;28;20489;-70
2022/12/15 01:29:40;;;;;;;29.20;18.37;;;1.10;37.60;;;;;;5004833;28;20467;-70
2022/12/15 01:32:07;;;;;;;25.20;17.37;;;1.10;37.60;;;;;;5004064;28;20471;-70
2022/12/15 01:34:39;;;;;;;28.83;17.63;;;1.10;37.50;;;;;;5004142;28;20468;-70
2022/12/15 01:37:12;;;;;;;23.67;16.50;;;1.10;37.50;;;;;;5005978;28;20484;-70
2022/12/15 01:42:24;;;;;;;27.53;17.00;;;1.10;37.50;;;;;;5000191;28;20492;-71
2022/12/15 01:44:52;;;;;;;25.90;17.93;;;1.10;37.40;;;;;;5006707;28;20813;-71
2022/12/15 01:47:25;;;;;;;26.47;17.60;;;1.10;37.50;;;;;;5003763;28;20608;-71
2022/12/15 01:49:55;;;;;;;27.20;16.57;;;1.10;37.50;;;;;;5003991;28;20465;-70
2022/12/15 01:52:25;;;;;;;28.60;18.80;;;1.10;37.50;;;;;;5005316;28;21091;-70
2022/12/15 01:54:58;;;;;;;26.17;17.47;;;1.10;37.50;;;;;;5004374;28;20456;-70
2022/12/15 01:57:31;;;;;;;27.67;17.60;;;1.10;37.50;;;;;;5001531;28;21228;-72
2022/12/15 02:00:08;;;;;;;34.77;19.53;;;1.10;37.50;;;;;;5004422;28;20459;-71
2022/12/15 02:02:44;;;;;;;28.93;18.13;;;1.10;37.60;;;;;;5003329;28;21003;-72
2022/12/15 02:05:26;;;;;;;;;;;;;;;;;;;;;
2022/12/15 02:07:55;;;;;;;27.40;17.23;;;1.10;37.40;;;;;;5002074;28;21031;-72
2022/12/15 02:10:39;;;;;;;29.80;19.20;;;1.00;37.50;;;;;;5002083;28;20460;-70
2022/12/15 02:13:15;;;;;;;28.13;16.97;;;1.10;37.60;;;;;;4993199;28;20527;-72
2022/12/15 02:16:11;;;;;;;26.97;18.43;;;1.10;37.60;;;;;;5004334;28;20491;-71
2022/12/15 02:18:59;;;;;;;33.30;19.93;;;1.10;37.60;;;;;;5000378;28;20860;-71
2022/12/15 02:21:32;;;;;;;29.83;18.67;;;1.10;37.60;;;;;;5001087;28;20483;-70
2022/12/15 02:24:47;;;;;;;30.43;19.33;;;1.10;37.50;;;;;;5000814;28;20568;-70
2022/12/15 02:27:45;;;;;;;30.40;18.47;;;1.10;37.60;;;;;;4960017;28;20881;-71
2022/12/15 02:30:25;;;;;;;32.30;20.67;;;1.10;37.70;;;;;;4959013;28;20500;-71
2022/12/15 02:33:02;;;;;;;30.17;18.40;;;1.00;37.60;;;;;;4990438;28;20495;-71
2022/12/15 02:35:41;;;;;;;29.27;18.70;;;1.00;37.60;;;;;;5001050;28;20483;-71
2022/12/15 02:38:09;;;;;;;28.80;18.53;;;1.00;37.60;;;;;;5002892;28;20483;-71
2022/12/15 02:40:36;;;;;;;28.33;18.00;;;1.10;37.70;;;;;;5001662;28;20470;-71
2022/12/15 02:43:05;;;;;;;28.90;18.27;;;1.00;37.60;;;;;;5003326;28;20488;-71
2022/12/15 02:45:40;;;;;;;30.00;19.97;;;1.00;37.60;;;;;;5005224;28;20834;-71
2022/12/15 02:48:19;;;;;;;26.10;18.07;;;1.10;37.60;;;;;;5002301;28;20710;-71
2022/12/15 02:51:00;;;;;;;29.97;18.50;;;1.10;37.70;;;;;;5003281;28;20452;-71
2022/12/15 02:53:44;;;;;;;30.40;19.07;;;1.10;37.60;;;;;;5004324;28;20485;-70
2022/12/15 02:56:19;;;;;;;33.77;20.63;;;1.10;37.60;;;;;;4999045;28;20504;-71
2022/12/15 02:58:56;;;;;;;32.70;19.30;;;1.10;37.60;;;;;;5001169;28;20467;-70
2022/12/15 03:01:29;;;;;;;27.23;18.27;;;1.00;37.50;;;;;;5004397;28;21015;-70
2022/12/15 03:03:58;;;;;;;29.27;19.37;;;1.00;37.50;;;;;;5004330;28;20464;-70
2022/12/15 03:06:26;;;;;;;31.10;19.07;;;1.00;37.50;;;;;;5002066;28;20490;-71
2022/12/15 03:08:53;;;;;;;32.30;21.30;;;1.00;37.60;;;;;;5002569;28;20467;-70
2022/12/15 03:11:20;;;;;;;27.60;18.60;;;1.00;37.60;;;;;;5001154;28;20471;-69
2022/12/15 03:13:50;;;;;;;29.50;18.67;;;1.00;37.60;;;;;;5001600;28;20456;-70
2022/12/15 03:16:18;;;;;;;32.77;19.63;;;1.00;37.60;;;;;;5001989;28;20522;-70
2022/12/15 03:18:47;;;;;;;30.47;19.07;;;1.00;37.50;;;;;;5005554;28;20487;-70
2022/12/15 03:21:15;;;;;;;32.27;20.40;;;1.00;38.10;;;;;;5002240;28;20503;-70
2022/12/15 03:23:41;;;;;;;26.33;18.50;;;1.00;37.50;;;;;;4997045;28;20476;-70
2022/12/15 03:26:08;;;;;;;29.93;17.93;;;1.00;37.50;;;;;;5003898;28;20463;-71
2022/12/15 03:28:35;;;;;;;34.00;21.23;;;1.00;37.50;;;;;;5005233;28;20509;-70
2022/12/15 03:31:03;;;;;;;33.43;20.40;;;1.10;37.60;;;;;;5005798;28;21410;-70
2022/12/15 03:33:30;;;;;;;32.13;19.70;;;1.10;37.50;;;;;;5004754;28;21156;-70
2022/12/15 03:36:04;;;;;;;30.47;19.17;;;1.00;37.50;;;;;;5005982;28;20455;-70
2022/12/15 03:38:31;;;;;;;31.97;20.27;;;1.10;37.70;;;;;;5007450;28;20464;-72
2022/12/15 03:40:57;;;;;;;31.60;19.97;;;1.00;37.70;;;;;;5000303;28;20448;-71
2022/12/15 03:43:24;;;;;;;35.90;20.13;;;1.10;37.80;;;;;;5005509;28;21026;-70
2022/12/15 03:45:51;;;;;;;28.20;19.70;;;1.10;37.60;;;;;;5007925;28;20777;-72
2022/12/15 03:48:18;;;;;;;33.03;21.60;;;1.10;37.70;;;;;;5003553;28;21184;-71
2022/12/15 03:50:44;;;;;;;33.47;20.10;;;1.10;37.70;;;;;;5003162;28;20469;-71
2022/12/15 03:53:13;;;;;;;30.73;20.03;;;1.10;37.70;;;;;;5007057;28;20451;-71
2022/12/15 03:55:39;;;;;;;29.57;19.87;;;1.10;37.70;;;;;;5008765;28;20626;-71
2022/12/15 03:58:06;;;;;;;32.07;19.40;;;1.10;37.70;;;;;;5006597;28;20943;-70
2022/12/15 04:00:33;;;;;;;31.10;19.50;;;1.10;37.60;;;;;;5005557;28;20542;-71
2022/12/15 04:03:00;;;;;;;33.77;20.90;;;1.10;37.60;;;;;;5005979;28;20483;-71
2022/12/15 04:05:28;;;;;;;30.43;19.40;;;1.10;37.60;;;;;;5007774;28;20809;-70
2022/12/15 04:07:57;;;;;;;30.97;19.03;;;1.10;37.50;;;;;;5000575;28;20480;-71
2022/12/15 04:10:27;;;;;;;31.50;20.73;;;1.10;37.50;;;;;;5004495;28;20459;-70
2022/12/15 04:12:57;;;;;;;32.90;18.63;;;1.10;37.50;;;;;;5001516;28;20456;-70
2022/12/15 04:15:24;;;;;;;29.90;18.87;;;1.10;37.60;;;;;;5006542;28;20475;-70
2022/12/15 04:17:51;;;;;;;30.30;20.20;;;1.10;37.50;;;;;;5007009;28;22053;-70
2022/12/15 04:20:17;;;;;;;35.40;20.17;;;1.10;37.60;;;;;;5010748;28;20460;-70
2022/12/15 04:22:45;;;;;;;31.00;19.03;;;1.10;37.60;;;;;;5007853;28;20476;-72
2022/12/15 05:33:59;;;;;;;42.80;24.23;;;0.70;37.70;;;;;;5005066;28;20598;-71
2022/12/15 05:36:26;;;;;;;39.80;24.40;;;0.70;37.60;;;;;;5004947;28;20495;-71
2022/12/15 05:38:53;;;;;;;43.40;25.30;;;0.70;37.50;;;;;;5007253;28;20474;-71
2022/12/15 05:41:22;;;;;;;37.73;24.43;;;0.60;37.50;;;;;;5004068;28;20464;-71
2022/12/15 05:43:49;;;;;;;40.40;23.40;;;0.60;37.60;;;;;;5006490;28;20491;-71
2022/12/15 05:46:16;;;;;;;39.67;24.93;;;0.60;37.70;;;;;;5004538;28;20480;-71
2022/12/15 05:48:43;;;;;;;42.53;23.90;;;0.60;37.80;;;;;;5000422;28;20468;-71
2022/12/15 05:51:12;;;;;;;46.67;25.33;;;0.60;37.80;;;;;;5002023;28;20554;-72
2022/12/15 05:53:41;;;;;;;44.07;26.17;;;0.60;37.70;;;;;;5003258;28;20452;-73
2022/12/15 05:56:10;;;;;;;41.93;26.10;;;0.60;37.80;;;;;;5001954;28;20871;-71
2022/12/15 05:58:38;;;;;;;38.67;23.80;;;0.60;37.80;;;;;;5005753;28;20460;-73
2022/12/15 06:01:06;;;;;;;45.37;26.00;;;0.60;37.80;;;;;;5004088;28;20479;-71
2022/12/15 06:03:33;;;;;;;44.80;25.07;;;0.60;37.70;;;;;;5003683;28;20484;-71
2022/12/15 06:06:01;;;;;;;40.63;24.93;;;0.60;37.60;;;;;;5003671;28;20460;-71
2022/12/15 06:08:31;;;;;;;40.30;23.87;;;0.60;37.50;;;;;;5000260;28;20467;-72
2022/12/15 06:10:58;;;;;;;42.10;24.07;;;0.60;37.50;;;;;;5003041;28;20463;-71
2022/12/15 06:13:26;;;;;;;45.40;24.60;;;0.60;37.60;;;;;;5006575;28;21020;-72
2022/12/15 06:15:57;;;;;;;44.80;26.40;;;0.60;37.50;;;;;;5001848;28;20456;-71
2022/12/15 06:18:25;;;;;;;40.57;23.90;;;0.50;37.50;;;;;;5006747;28;20464;-72
2022/12/15 06:20:57;;;;;;;40.37;25.10;;;0.60;37.60;;;;;;5005289;28;20931;-71
2022/12/15 06:23:24;;;;;;;41.90;25.13;;;0.60;37.60;;;;;;5003926;28;20487;-72
2022/12/15 06:25:53;;;;;;;41.77;24.83;;;0.60;37.50;;;;;;5001056;28;20988;-72
2022/12/15 06:28:22;;;;;;;47.23;25.90;;;0.60;37.50;;;;;;5005088;28;20479;-71
2022/12/15 06:30:51;;;;;;;41.27;25.07;;;0.60;37.30;;;;;;5004534;28;20526;-71
2022/12/15 06:33:17;;;;;;;41.83;25.30;;;0.60;37.10;;;;;;5005004;28;20464;-72
2022/12/15 06:35:44;;;;;;;45.23;25.90;;;0.60;37.20;;;;;;5005651;28;22777;-72
2022/12/15 06:38:11;;;;;;;45.63;26.50;;;0.60;37.20;;;;;;5003439;28;20890;-72
2022/12/15 06:40:38;;;;;;;41.23;24.73;;;0.60;37.10;;;;;;5006044;28;20842;-72
2022/12/15 06:43:06;;;;;;;42.93;25.53;;;0.60;37.10;;;;;;5007002;28;20488;-72
2022/12/15 06:45:33;;;;;;;43.43;25.20;;;0.60;37.00;;;;;;5004310;28;20459;-72
2022/12/15 06:48:00;;;;;;;46.33;25.53;;;0.60;36.80;;;;;;5005309;28;20914;-72
2022/12/15 06:50:27;;;;;;;42.67;24.87;;;0.60;36.60;;;;;;5001855;28;20573;-72
2022/12/15 06:52:54;;;;;;;43.33;25.63;;;0.60;36.70;;;;;;5004765;28;20975;-72
2022/12/15 06:55:20;;;;;;;45.97;25.10;;;0.50;36.70;;;;;;5003897;28;20468;-72
2022/12/15 06:57:47;;;;;;;36.30;23.83;;;0.50;36.50;;;;;;5005235;28;20479;-72
2022/12/15 07:00:16;;;;;;;42.80;24.00;;;0.50;36.60;;;;;;4999013;28;20469;-71
2022/12/15 07:02:43;;;;;;;42.17;25.43;;;0.50;36.10;;;;;;4992775;23;21014;-63
2022/12/15 07:05:10;;;;;;;37.33;23.23;;;0.50;36.00;;;;;;4965610;28;20465;-64
2022/12/15 07:07:37;;;;;;;39.70;23.17;;;0.40;36.20;;;;;;4964255;28;20472;-63
2022/12/15 07:10:04;;;;;;;39.70;24.27;;;0.50;36.30;;;;;;4962493;28;20721;-64
2022/12/15 07:12:31;;;;;;;40.37;24.07;;;0.50;35.70;;;;;;4959229;28;21022;-63
2022/12/15 07:14:57;;;;;;;38.13;22.87;;;0.40;35.30;;;;;;4949313;28;21052;-64
2022/12/15 07:17:26;;;;;;;40.43;23.53;;;0.40;35.80;;;;;;4953600;28;20481;-64
2022/12/15 07:19:52;;;;;;;40.40;22.80;;;0.40;36.00;;;;;;4946975;23;20509;-61
2022/12/15 07:22:20;;;;;;;39.90;24.20;;;0.40;35.90;;;;;;4959168;28;20466;-63
2022/12/15 07:24:49;;;;;;;40.27;24.30;;;0.40;35.50;;;;;;4970628;28;20474;-63
2022/12/15 07:27:16;;;;;;;38.63;23.00;;;0.30;35.70;;;;;;4961503;28;20871;-64
2022/12/15 07:29:43;;;;;;;43.50;23.40;;;0.30;35.90;;;;;;4964140;28;20482;-63
2022/12/15 07:32:10;;;;;;;43.50;24.60;;;0.30;36.10;;;;;;4947553;28;20478;-61
2022/12/15 07:34:38;;;;;;;42.10;24.40;;;0.30;36.20;;;;;;4943493;28;20462;-63
2022/12/15 07:37:05;;;;;;;40.97;25.00;;;0.30;36.30;;;;;;4947923;28;20462;-61
2022/12/15 07:39:32;;;;;;;42.57;24.57;;;0.30;36.10;;;;;;4942253;28;20950;-64
2022/12/15 07:41:59;;;;;;;37.20;22.63;;;0.30;36.10;;;;;;4945708;28;20494;-61
2022/12/15 07:44:26;;;;;;;40.93;23.47;;;0.30;35.90;;;;;;4941475;28;20983;-61
2022/12/15 07:46:52;;;;;;;41.07;22.80;;;0.40;35.60;;;;;;4944454;28;21544;-63
2022/12/15 07:49:20;;;;;;;46.30;26.57;;;0.40;35.30;;;;;;4944013;28;20842;-63
2022/12/15 07:51:48;;;;;;;46.77;25.83;;;0.30;35.50;;;;;;4947857;28;20533;-63
2022/12/15 07:54:15;;;;;;;40.93;22.47;;;0.30;35.60;;;;;;4945110;28;20990;-63
2022/12/15 07:56:42;;;;;;;42.23;24.07;;;0.30;35.80;;;;;;4948485;28;20497;-60
2022/12/15 07:59:09;;;;;;;42.97;23.93;;;0.30;36.10;;;;;;4949529;28;20935;-63
2022/12/15 08:01:36;;;;;;;47.50;25.93;;;0.30;36.10;;;;;;4945991;28;20482;-63
2022/12/15 08:04:03;;;;;;;43.33;24.97;;;0.40;36.10;;;;;;4946359;28;20482;-63
2022/12/15 08:06:30;;;;;;;45.00;24.70;;;0.40;36.20;;;;;;4942855;28;20593;-62
2022/12/15 08:08:58;;;;;;;44.90;24.57;;;0.40;35.90;;;;;;4944142;28;20463;-63
2022/12/15 08:11:25;;;;;;;42.50;26.17;;;0.40;36.00;;;;;;4943858;28;20498;-63
2022/12/15 08:13:52;;;;;;;47.40;25.93;;;0.40;36.20;;;;;;4943898;28;20943;-60
2022/12/15 08:16:19;;;;;;;41.23;23.50;;;0.50;36.20;;;;;;4947599;28;20467;-63
2022/12/15 08:18:46;;;;;;;45.87;27.33;;;0.50;36.20;;;;;;4948071;28;20466;-62
2022/12/15 08:21:13;;;;;;;39.97;23.20;;;0.50;36.20;;;;;;4945230;28;20942;-60
2022/12/15 08:23:40;;;;;;;46.53;25.67;;;0.50;36.20;;;;;;4944934;28;20923;-63
2022/12/15 08:26:10;;;;;;;46.07;26.83;;;0.60;36.40;;;;;;4948837;28;20982;-63
2022/12/15 08:28:39;;;;;;;46.33;27.10;;;0.70;36.40;;;;;;4942028;28;20470;-61
2022/12/15 08:31:07;;;;;;;43.80;25.57;;;0.70;36.30;;;;;;4941168;28;20485;-63
2022/12/15 08:33:34;;;;;;;44.03;24.73;;;0.80;36.10;;;;;;4937220;28;20564;-63
2022/12/15 08:36:03;;;;;;;39.70;24.83;;;0.90;36.20;;;;;;4941086;28;20470;-60
2022/12/15 08:38:30;;;;;;;45.10;25.67;;;0.90;36.10;;;;;;4948075;28;20561;-63
2022/12/15 08:40:57;;;;;;;43.63;26.33;;;1.10;36.00;;;;;;4946918;28;20486;-63
2022/12/15 08:43:25;;;;;;;41.50;24.33;;;1.20;35.80;;;;;;4942490;28;20482;-63
2022/12/15 08:45:52;;;;;;;44.17;25.40;;;1.20;35.40;;;;;;4947101;28;20463;-63
2022/12/15 08:48:19;;;;;;;41.30;26.00;;;1.30;35.30;;;;;;4947233;28;20510;-63
2022/12/15 08:50:46;;;;;;;40.53;25.23;;;1.30;35.00;;;;;;4945210;28;20488;-63
2022/12/15 08:53:13;;;;;;;40.63;25.30;;;1.40;35.10;;;;;;4945156;28;20463;-63
2022/12/15 08:55:40;;;;;;;38.37;25.03;;;1.50;35.00;;;;;;4947574;28;20467;-63
2022/12/15 08:58:07;;;;;;;41.63;26.37;;;1.60;34.80;;;;;;4944953;28;20525;-63
2022/12/15 09:00:35;;;;;;;44.80;27.23;;;1.70;34.70;;;;;;4945053;28;20490;-63
2022/12/15 09:03:01;;;;;;;43.07;25.80;;;1.70;34.60;;;;;;4945822;28;20466;-60
2022/12/15 09:05:28;;;;;;;44.37;26.10;;;1.80;34.30;;;;;;4940084;28;20480;-63
2022/12/15 09:07:56;;;;;;;45.53;25.50;;;1.80;34.30;;;;;;4940776;28;20470;-61
2022/12/15 09:10:23;;;;;;;42.43;26.10;;;1.90;33.90;;;;;;4944276;28;20531;-63
2022/12/15 09:12:50;;;;;;;48.47;27.73;;;2.00;33.80;;;;;;4938452;28;20478;-61
2022/12/15 09:15:17;;;;;;;44.07;26.30;;;2.00;34.00;;;;;;4944385;28;20463;-63
2022/12/15 09:17:46;;;;;;;40.63;25.50;;;2.00;33.20;;;;;;4948603;28;20472;-63
2022/12/15 09:20:14;;;;;;;45.33;26.03;;;2.10;33.00;;;;;;4943125;28;20486;-63
2022/12/15 09:22:41;;;;;;;42.43;25.33;;;2.10;33.00;;;;;;4944188;28;20462;-61
2022/12/15 09:25:09;;;;;;;46.47;26.80;;;2.20;33.10;;;;;;4946407;28;20907;-64
2022/12/15 09:27:36;;;;;;;45.03;27.17;;;2.20;32.80;;;;;;4946924;28;20468;-63
2022/12/15 09:30:04;;;;;;;38.37;25.13;;;2.20;32.70;;;;;;4944353;28;20485;-64
2022/12/15 09:32:31;;;;;;;44.80;27.10;;;2.20;32.20;;;;;;4944115;28;21061;-61
2022/12/15 09:34:59;;;;;;;42.07;26.27;;;2.20;32.10;;;;;;4947523;28;21464;-61
2022/12/15 09:37:25;;;;;;;42.87;24.00;;;2.20;32.20;;;;;;4945673;28;20462;-63
2022/12/15 09:39:52;;;;;;;44.00;24.80;;;2.20;32.10;;;;;;4948165;28;21007;-63
2022/12/15 09:42:25;;;;;;;45.47;25.23;;;2.20;32.10;;;;;;4948778;28;20955;-63
2022/12/15 09:44:59;;;;;;;56.03;27.10;;;2.20;32.30;;;;;;4944236;28;20514;-63
2022/12/15 09:47:33;;;;;;;45.63;27.73;;;2.20;32.30;;;;;;4943269;28;21113;-63
2022/12/15 09:50:06;;;;;;;41.33;25.93;;;2.30;32.40;;;;;;4936729;28;20482;-63
2022/12/15 09:52:38;;;;;;;42.23;25.93;;;2.30;32.30;;;;;;4943364;28;20561;-62
2022/12/15 09:55:16;;;;;;;48.07;28.13;;;2.30;32.00;;;;;;4940352;28;20475;-62
2022/12/15 09:57:48;;;;;;;42.40;26.90;;;2.30;32.00;;;;;;4941435;28;20485;-63
2022/12/15 10:00:20;;;;;;;45.27;27.33;;;2.30;32.00;;;;;;4940966;28;20490;-63
2022/12/15 10:03:35;;;;;;;45.93;27.93;;;2.30;32.10;;;;;;4941996;28;20502;-63
2022/12/15 10:06:07;;;;;;;42.97;28.10;;;2.30;32.10;;;;;;4930112;28;20466;-62
2022/12/15 10:08:39;;;;;;;49.07;28.70;;;2.30;32.00;;;;;;4947398;28;20463;-63
2022/12/15 10:11:16;;;;;;;44.60;26.70;;;2.30;32.10;;;;;;4945681;28;21003;-62
2022/12/15 10:13:51;;;;;;;42.67;28.20;;;2.30;32.00;;;;;;4943134;28;20890;-62
2022/12/15 10:16:24;;;;;;;44.57;25.77;;;2.30;31.90;;;;;;4944928;28;20469;-62
2022/12/15 10:19:02;;;;;;;45.23;27.07;;;2.40;32.00;;;;;;4945436;28;20653;-63
2022/12/15 10:21:32;;;;;;;43.83;27.60;;;2.30;31.90;;;;;;4944456;28;20486;-63
2022/12/15 10:24:09;;;;;;;46.20;27.63;;;2.40;32.60;;;;;;4939521;28;20491;-63
2022/12/15 10:26:36;;;;;;;43.77;27.07;;;2.40;31.80;;;;;;4945709;28;20989;-63
2022/12/15 10:29:24;;;;;;;48.20;28.03;;;2.50;31.90;;;;;;4943633;28;20835;-62
2022/12/15 10:31:54;;;;;;;46.57;28.03;;;2.50;31.70;;;;;;4939008;28;20467;-62
2022/12/15 10:34:27;;;;;;;46.47;28.33;;;2.50;31.50;;;;;;4940443;28;20461;-62
2022/12/15 10:36:56;;;;;;;44.17;26.80;;;2.50;31.70;;;;;;4944224;28;20486;-63
2022/12/15 10:39:24;;;;;;;46.53;28.33;;;2.40;31.70;;;;;;4944927;28;20470;-64
2022/12/15 10:42:11;;;;;;;43.00;25.63;;;2.50;31.80;;;;;;4942822;28;20470;-63
2022/12/15 10:44:40;;;;;;;45.80;26.67;;;2.50;31.70;;;;;;4943460;28;20486;-62
2022/12/15 10:47:11;;;;;;;49.00;27.97;;;2.50;31.50;;;;;;4934791;28;20475;-62
2022/12/15 10:49:38;;;;;;;42.40;27.83;;;2.50;31.40;;;;;;4944118;28;20985;-62
2022/12/15 10:52:18;;;;;;;49.07;28.57;;;2.50;31.30;;;;;;4945874;28;20466;-62
2022/12/15 10:54:47;;;;;;;48.90;28.10;;;2.50;31.60;;;;;;4939168;28;20463;-62
2022/12/15 10:57:19;;;;;;;51.40;29.10;;;2.50;31.50;;;;;;4944210;28;20467;-62
2022/12/15 10:59:47;;;;;;;44.73;27.10;;;2.50;31.60;;;;;;4940168;28;20569;-62
2022/12/15 11:02:31;;;;;;;47.00;28.47;;;2.50;31.50;;;;;;4941482;28;20516;-63
2022/12/15 11:04:59;;;;;;;44.40;28.13;;;2.50;31.60;;;;;;4947423;28;20514;-63
2022/12/15 11:07:33;;;;;;;48.50;28.10;;;2.50;31.40;;;;;;4943844;28;20467;-63
2022/12/15 11:10:03;;;;;;;52.10;28.90;;;2.50;31.50;;;;;;4944050;28;20486;-64
2022/12/15 11:15:37;;;;;;;52.10;30.93;;;2.60;31.40;;;;;;4945519;28;20626;-63
2022/12/15 11:18:11;;;;;;;53.00;29.23;;;2.50;31.20;;;;;;4945634;28;20458;-63
2022/12/15 11:20:42;;;;;;;51.50;29.30;;;2.50;31.20;;;;;;4943937;28;21287;-63
2022/12/15 11:23:18;;;;;;;50.27;28.40;;;2.50;31.30;;;;;;4948257;28;20477;-63
2022/12/15 11:25:51;;;;;;;51.10;30.70;;;2.50;31.20;;;;;;4940844;28;20504;-62
2022/12/15 11:28:23;;;;;;;47.80;28.80;;;2.50;30.90;;;;;;4942179;28;20471;-63
2022/12/15 11:30:56;;;;;;;47.87;27.70;;;2.50;31.70;;;;;;4943483;28;20466;-63
2022/12/15 11:33:23;;;;;;;46.67;27.80;;;2.50;31.00;;;;;;4946650;28;20469;-63
2022/12/15 11:36:06;;;;;;;52.30;30.53;;;2.50;30.80;;;;;;4943190;29;20809;-62
2022/12/15 11:38:41;;;;;;;52.00;28.70;;;2.50;30.80;;;;;;4946047;28;20461;-62
2022/12/15 11:41:13;;;;;;;52.37;29.67;;;2.50;30.80;;;;;;4942550;28;20485;-62
2022/12/15 11:44:08;;;;;;;52.50;29.87;;;2.40;30.70;;;;;;4949145;28;20562;-63
2022/12/15 11:46:42;;;;;;;51.43;28.60;;;2.40;30.90;;;;;;4947183;28;20462;-64
2022/12/15 11:49:53;;;;;;;50.10;29.13;;;2.30;31.10;;;;;;4941384;28;20975;-66
2022/12/15 11:52:44;;;;;;;47.60;27.93;;;2.30;31.20;;;;;;4919326;28;20484;-69
2022/12/15 11:55:21;;;;;;;45.83;26.53;;;2.20;31.20;;;;;;4944664;28;20845;-71
2022/12/15 11:58:20;;;;;;;45.67;28.53;;;2.20;31.20;;;;;;4946308;28;20465;-66
2022/12/15 12:00:53;;;;;;;51.80;29.90;;;2.20;31.40;;;;;;4946054;28;20482;-68
2022/12/15 12:03:29;;;;;;;48.87;27.37;;;2.20;31.20;;;;;;4949423;28;20461;-69
2022/12/15 12:06:08;;;;;;;54.73;29.90;;;2.20;31.50;;;;;;4942632;28;20493;-69
2022/12/15 12:08:59;;;;;;;49.70;29.33;;;2.30;31.60;;;;;;4947696;28;20822;-71
2022/12/15 12:11:32;;;;;;;48.90;28.17;;;2.30;31.60;;;;;;4945703;28;20494;-71
2022/12/15 12:14:12;;;;;;;49.83;28.67;;;2.30;31.70;;;;;;4948123;28;20470;-70
2022/12/15 12:16:46;;;;;;;49.20;28.10;;;2.30;31.70;;;;;;4949635;28;20545;-71
2022/12/15 12:19:19;;;;;;;49.13;28.27;;;2.20;31.60;;;;;;4942273;28;20462;-68
2022/12/15 12:21:48;;;;;;;51.10;29.10;;;2.20;31.80;;;;;;4941951;28;20596;-67
2022/12/15 12:24:19;;;;;;;53.17;28.07;;;2.20;31.80;;;;;;4944717;28;20654;-71
2022/12/15 12:26:53;;;;;;;45.83;27.20;;;2.10;31.90;;;;;;4943630;28;20470;-68
2022/12/15 12:29:25;;;;;;;51.70;27.87;;;2.10;32.00;;;;;;4946684;28;20458;-67
2022/12/15 12:32:02;;;;;;;47.40;28.23;;;2.10;32.20;;;;;;4948671;28;20529;-68
2022/12/15 12:34:37;;;;;;;49.73;29.43;;;2.10;32.20;;;;;;4948876;28;20462;-68
2022/12/15 12:37:14;;;;;;;50.00;29.50;;;2.00;32.30;;;;;;4947520;28;21999;-67
2022/12/15 12:39:42;;;;;;;49.93;27.50;;;2.00;32.50;;;;;;4943006;28;20501;-67
2022/12/15 12:42:17;;;;;;;49.67;28.20;;;2.00;32.60;;;;;;4952967;28;20533;-68
2022/12/15 12:44:44;;;;;;;51.77;28.97;;;2.00;32.50;;;;;;4947709;28;20478;-68
2022/12/15 12:47:16;;;;;;;50.13;28.13;;;1.90;32.50;;;;;;4946365;28;20461;-67
2022/12/15 12:49:46;;;;;;;50.07;26.97;;;1.90;32.70;;;;;;4945141;28;21003;-67
2022/12/15 12:52:21;;;;;;;44.23;26.97;;;1.90;32.60;;;;;;4945595;28;20836;-67
2022/12/15 12:54:57;;;;;;;48.23;27.83;;;1.90;32.60;;;;;;4940632;28;21071;-65
2022/12/15 12:57:33;;;;;;;49.83;29.63;;;2.00;32.70;;;;;;4937109;28;21037;-64
2022/12/15 13:00:05;;;;;;;50.23;28.00;;;1.90;32.40;;;;;;4943084;28;20486;-68
2022/12/15 13:02:47;;;;;;;49.73;29.03;;;1.90;32.20;;;;;;4939449;28;20501;-67
2022/12/15 13:05:32;;;;;;;50.03;28.60;;;1.90;32.70;;;;;;4947578;28;20486;-67
2022/12/15 13:08:25;;;;;;;47.23;27.00;;;1.80;32.60;;;;;;4938959;28;20466;-67
2022/12/15 13:10:54;;;;;;;51.00;28.80;;;1.80;32.70;;;;;;4946584;28;20529;-67
2022/12/15 13:13:44;;;;;;;51.63;27.67;;;1.80;32.80;;;;;;4943305;28;20470;-66
2022/12/15 13:16:19;;;;;;;57.27;30.13;;;1.70;33.20;;;;;;4948608;28;21137;-66
2022/12/15 13:19:02;;;;;;;53.13;28.70;;;1.70;33.20;;;;;;4941194;28;20470;-66
2022/12/15 13:21:51;;;;;;;51.23;28.73;;;1.70;33.50;;;;;;4942546;28;20486;-67
2022/12/15 13:24:25;;;;;;;53.17;30.40;;;1.60;33.60;;;;;;4945303;28;20496;-67
2022/12/15 13:26:52;;;;;;;49.47;28.07;;;1.50;34.00;;;;;;4946504;28;20470;-67
2022/12/15 13:29:22;;;;;;;51.90;28.23;;;1.50;34.40;;;;;;4946462;28;20459;-67
2022/12/15 13:31:51;;;;;;;55.27;30.50;;;1.50;34.60;;;;;;4946766;28;20482;-67
2022/12/15 13:34:26;;;;;;;51.80;29.17;;;1.60;34.60;;;;;;4946253;28;20467;-67
2022/12/15 13:37:02;;;;;;;53.53;30.30;;;1.60;34.60;;;;;;4942105;28;20477;-67
2022/12/15 13:39:51;;;;;;;51.23;28.60;;;1.70;34.70;;;;;;4944116;28;20494;-67
2022/12/15 13:42:35;;;;;;;51.50;28.03;;;1.70;34.60;;;;;;4940093;28;21021;-66
2022/12/15 13:45:33;;;;;;;46.60;27.23;;;1.70;34.60;;;;;;4946853;28;20486;-66
2022/12/15 13:48:01;;;;;;;53.43;28.70;;;1.80;34.40;;;;;;4939758;28;20466;-61
2022/12/15 13:50:33;;;;;;;51.90;28.40;;;1.80;34.30;;;;;;4939015;28;20597;-61
2022/12/15 13:53:03;;;;;;;61.00;30.00;;;1.80;34.30;;;;;;4938500;28;20457;-61
2022/12/15 13:55:37;;;;;;;51.20;29.67;;;1.80;34.20;;;;;;4942739;28;20482;-61
2022/12/15 13:58:12;;;;;;;54.20;32.20;;;1.70;34.30;;;;;;4938772;28;20458;-61
2022/12/15 14:00:48;;;;;;;56.60;33.50;;;1.70;34.50;;;;;;4937781;28;20476;-61
2022/12/15 14:03:15;;;;;;;55.83;31.73;;;1.70;34.60;;;;;;4943836;28;20478;-61
2022/12/15 14:05:49;;;;;;;56.70;30.57;;;1.70;34.40;;;;;;4937576;28;20486;-61
2022/12/15 14:08:17;;;;;;;58.30;31.23;;;1.70;34.30;;;;;;4935874;28;20477;-61
2022/12/15 14:10:47;;;;;;;54.50;30.07;;;1.70;34.40;;;;;;4943845;28;20493;-61
2022/12/15 14:13:20;;;;;;;58.20;32.07;;;1.60;34.30;;;;;;4941455;28;20879;-62
2022/12/15 14:15:52;;;;;;;59.40;32.87;;;1.60;34.60;;;;;;4940068;28;20451;-61
2022/12/15 14:18:28;;;;;;;55.60;32.03;;;1.60;34.70;;;;;;4948540;28;20469;-61
2022/12/15 14:20:55;;;;;;;49.53;29.10;;;1.50;34.80;;;;;;4946695;28;20939;-62
2022/12/15 14:23:24;;;;;;;54.77;32.17;;;1.60;34.80;;;;;;4944895;28;20593;-61
2022/12/15 14:25:56;;;;;;;56.20;33.10;;;1.60;34.80;;;;;;4942119;28;20483;-62
2022/12/15 14:28:30;;;;;;;59.77;32.07;;;1.60;35.30;;;;;;4942643;28;20471;-61
2022/12/15 14:31:02;;;;;;;52.50;29.60;;;1.50;34.80;;;;;;4941093;28;21061;-61
2022/12/15 14:33:31;;;;;;;56.77;31.93;;;1.50;34.90;;;;;;4940167;28;20832;-62
2022/12/15 14:35:59;;;;;;;57.83;30.10;;;1.50;35.00;;;;;;4944670;28;20465;-61
2022/12/15 14:38:32;;;;;;;60.93;33.10;;;1.50;35.00;;;;;;4942668;28;20469;-61
2022/12/15 14:41:03;;;;;;;55.40;29.07;;;1.50;35.00;;;;;;4945786;28;20674;-61
2022/12/15 14:43:33;;;;;;;58.30;31.83;;;1.40;35.00;;;;;;4940331;28;20466;-61
2022/12/15 14:46:08;;;;;;;57.87;32.07;;;1.40;35.10;;;;;;4943071;28;20495;-61
2022/12/15 14:48:39;;;;;;;61.50;31.30;;;1.40;35.20;;;;;;4941108;28;20463;-61
2022/12/15 14:51:09;;;;;;;57.70;30.33;;;1.40;35.10;;;;;;4946354;28;20490;-61
2022/12/15 14:53:38;;;;;;;59.50;30.40;;;1.40;35.20;;;;;;4942126;28;20553;-61
2022/12/15 14:56:23;;;;;;;60.57;31.37;;;1.40;35.30;;;;;;4941148;28;20537;-61
2022/12/15 14:58:58;;;;;;;61.90;33.00;;;1.30;35.60;;;;;;4940667;28;21161;-61
2022/12/15 15:01:29;;;;;;;65.70;33.13;;;1.40;35.40;;;;;;4938914;28;20520;-61
2022/12/15 15:03:57;;;;;;;60.47;31.40;;;1.30;35.30;;;;;;4944133;28;20463;-61
2022/12/15 15:06:30;;;;;;;63.57;32.60;;;1.30;35.40;;;;;;4939169;28;20490;-61
2022/12/15 15:08:57;;;;;;;59.07;31.33;;;1.30;35.70;;;;;;4939938;28;21758;-62
2022/12/15 15:11:28;;;;;;;65.97;32.90;;;1.20;35.60;;;;;;4943512;28;20491;-61
2022/12/15 15:13:57;;;;;;;66.10;30.60;;;1.20;35.70;;;;;;4946544;28;20501;-61
2022/12/15 15:16:26;;;;;;;62.60;33.83;;;1.20;35.70;;;;;;4944297;28;20482;-61
2022/12/15 15:18:55;;;;;;;56.37;32.30;;;1.20;35.70;;;;;;4938495;28;20473;-61
2022/12/15 15:21:24;;;;;;;66.73;34.60;;;1.20;35.80;;;;;;4943597;28;20493;-61
2022/12/15 15:23:59;;;;;;;62.57;34.33;;;1.10;35.90;;;;;;4940457;28;20896;-61
2022/12/15 15:26:27;;;;;;;64.43;32.30;;;1.10;35.90;;;;;;4945896;28;20488;-61